Bettles Airport Bettles US
ICAO: PABT
IATA:
Category: Medium
Scheduled Services:

Elevation: 647 ft
TransAlt. 18000 ft.

Airport Communications:
ASOS:135.45
ANCHORAGE CNTR:124.6
CTAF:122.9
FAIRBANKS RDO:122.2
TWEB:116

PABT Zoom In..

Runways:

(A) RW 01 length 5190 ft width 150 ft
LOC 108.70 / hdg 12

(B) RW 19 length 5190 ft width 150 ft
LOC 108.70 / hdg 192

Location; PABT
Day. 30 / Time. 21.53 Zulu
* Altimeter: 29.36
* Temperature: -17° c. -1.4°f.
* Wind from: 330° Speed 06 kn.
Dewpoint: -19° c.
Visibility: 10 Statute Miles.
Clouds: Few 3800 ft.
Clouds: Scattered 5000 ft.
Clouds: Broken 12000 ft.
Conditions: Light Snow.

PABT 302153Z 33006KT 10SM -SN FEW038 SCT050 BKN120 M17/M19 A2936 RMK AO2 SNB24 SLP963 T11671194 PNO

Going to: --> -->


Wind From 330°
Speed 06 kn.

 
 
jpsmedia worldairports.se 2020   terms of use